Time;durP1;ratioP1;P1;durP2;ratioP2;P2;SDS_P1;SDS_P2;PMS_P1;PMS_P2;Temp;Humidity;BMP_temperature;BMP_pressure;BME280_temperature;BME280_humidity;BME280_pressure;Samples;Min_cycle;Max_cycle;Signal;HPM_P1;HPM_P2
2023/09/04 00:00:21;;;;;;;2.72;2.35;;;13.30;99.90;;;;;;5064327;28;20177;-94
2023/09/04 00:02:48;;;;;;;3.75;2.35;;;13.30;99.90;;;;;;5064602;28;20638;-95
2023/09/04 00:05:14;;;;;;;3.75;2.33;;;13.30;99.90;;;;;;5060964;28;20189;-94
2023/09/04 00:07:40;;;;;;;3.33;2.33;;;13.20;99.90;;;;;;5058085;28;20241;-94
2023/09/04 00:10:08;;;;;;;2.63;2.10;;;13.20;99.90;;;;;;5057295;28;20180;-95
2023/09/04 00:12:34;;;;;;;3.38;2.30;;;13.10;99.90;;;;;;5058297;28;20179;-95
2023/09/04 00:14:59;;;;;;;3.97;2.10;;;13.10;99.90;;;;;;5057708;28;20177;-94
2023/09/04 00:17:25;;;;;;;2.60;2.10;;;13.10;99.90;;;;;;5057392;28;20209;-95
2023/09/04 00:19:51;;;;;;;2.95;2.08;;;13.10;99.90;;;;;;5057855;28;20261;-95
2023/09/04 00:22:17;;;;;;;2.08;1.70;;;13.10;99.90;;;;;;5057700;28;20273;-95
2023/09/04 00:24:43;;;;;;;2.03;1.83;;;13.10;99.90;;;;;;5057117;28;20537;-95
2023/09/04 00:27:09;;;;;;;2.75;1.92;;;13.10;99.90;;;;;;5056754;28;20205;-96
2023/09/04 00:29:35;;;;;;;2.30;2.10;;;13.20;99.90;;;;;;5055982;28;21030;-95
2023/09/04 00:32:02;;;;;;;2.80;2.00;;;13.10;99.90;;;;;;5055644;28;20196;-95
2023/09/04 00:34:28;;;;;;;2.15;1.88;;;13.10;99.90;;;;;;5055642;28;20166;-96
2023/09/04 00:36:54;;;;;;;2.58;2.20;;;13.10;99.90;;;;;;5055583;28;20229;-95
2023/09/04 00:39:20;;;;;;;2.25;2.05;;;13.10;99.90;;;;;;5056340;28;20193;-94
2023/09/04 00:41:46;;;;;;;3.05;1.95;;;13.10;99.90;;;;;;5056038;28;20256;-94
2023/09/04 00:44:13;;;;;;;3.17;1.90;;;13.10;99.90;;;;;;5055487;28;20200;-95
2023/09/04 00:46:43;;;;;;;4.45;2.10;;;13.10;99.90;;;;;;5055236;28;20756;-94
2023/09/04 00:49:12;;;;;;;2.20;1.98;;;13.10;99.90;;;;;;5056201;28;20166;-96
2023/09/04 00:51:39;;;;;;;3.28;1.90;;;13.10;99.90;;;;;;5056309;28;20170;-95
2023/09/04 00:54:07;;;;;;;5.07;2.40;;;13.10;99.90;;;;;;5055671;28;20687;-94
2023/09/04 00:56:34;;;;;;;2.92;2.30;;;13.10;99.90;;;;;;5055749;28;20221;-95
2023/09/04 00:59:00;;;;;;;4.30;2.25;;;13.10;99.90;;;;;;5055944;28;20220;-95
2023/09/04 01:01:26;;;;;;;2.55;1.95;;;13.00;99.90;;;;;;5055663;28;20181;-94
2023/09/04 01:03:52;;;;;;;2.58;2.10;;;13.10;99.90;;;;;;5056019;28;20265;-96
2023/09/04 01:06:18;;;;;;;3.05;2.38;;;13.10;99.90;;;;;;5056287;28;20596;-95
2023/09/04 01:08:44;;;;;;;4.32;2.30;;;13.10;99.90;;;;;;5055943;28;20253;-94
2023/09/04 01:11:33;;;;;;;2.70;2.33;;;13.00;99.90;;;;;;5056148;28;20539;-94
2023/09/04 01:14:04;;;;;;;5.75;2.53;;;13.00;99.90;;;;;;5055625;28;20178;-95
2023/09/04 01:16:30;;;;;;;6.13;2.53;;;12.90;99.90;;;;;;5055271;28;20202;-94
2023/09/04 01:18:56;;;;;;;4.38;2.50;;;12.90;99.90;;;;;;5054609;28;20285;-94
2023/09/04 01:21:22;;;;;;;4.72;2.72;;;12.80;99.90;;;;;;5055056;28;20775;-95
2023/09/04 01:23:48;;;;;;;4.63;2.78;;;12.80;99.90;;;;;;5055240;28;20182;-95
2023/09/04 01:26:39;;;;;;;7.07;2.65;;;12.70;99.90;;;;;;5055453;28;20178;-94
2023/09/04 01:29:54;;;;;;;5.68;2.53;;;12.80;99.90;;;;;;5049620;28;20281;-95
2023/09/04 01:32:39;;;;;;;3.65;2.53;;;12.80;99.90;;;;;;5017676;28;20178;-94
2023/09/04 01:35:07;;;;;;;3.58;2.80;;;12.70;99.90;;;;;;5321758;22;20284;-90
2023/09/04 01:37:35;;;;;;;3.63;2.60;;;12.70;99.90;;;;;;5018356;28;20179;-90
2023/09/04 01:40:01;;;;;;;4.72;2.50;;;12.70;99.90;;;;;;5018352;28;20186;-90
2023/09/04 01:42:26;;;;;;;2.40;2.20;;;12.70;99.90;;;;;;5036079;28;20171;-90
2023/09/04 01:44:52;;;;;;;2.60;2.40;;;12.80;99.90;;;;;;5035873;28;20182;-89
2023/09/04 01:47:20;;;;;;;4.05;2.38;;;12.70;99.90;;;;;;5018160;28;20268;-89
2023/09/04 01:49:47;;;;;;;2.50;2.30;;;12.70;99.90;;;;;;5018207;28;20269;-89
2023/09/04 01:52:13;;;;;;;8.27;2.50;;;12.70;99.90;;;;;;5017917;28;20262;-90
2023/09/04 01:54:38;;;;;;;5.72;2.80;;;12.60;99.90;;;;;;5035773;28;20628;-90
2023/09/04 01:57:05;;;;;;;4.72;2.70;;;12.60;99.90;;;;;;5017975;28;20186;-90
2023/09/04 01:59:32;;;;;;;4.43;3.03;;;12.50;99.90;;;;;;5035581;28;20198;-89
2023/09/04 02:01:59;;;;;;;3.53;2.65;;;12.50;99.90;;;;;;5017753;28;20179;-89
2023/09/04 02:04:24;;;;;;;4.07;2.80;;;12.50;99.90;;;;;;5017995;28;20190;-90
2023/09/04 02:06:56;;;;;;;5.60;2.80;;;12.50;99.90;;;;;;5050661;28;20351;-90
2023/09/04 02:09:22;;;;;;;3.65;2.42;;;12.40;99.90;;;;;;5037633;28;20185;-92
2023/09/04 02:11:48;;;;;;;3.22;2.70;;;12.40;99.90;;;;;;5055512;28;20196;-91
2023/09/04 02:14:13;;;;;;;3.28;2.60;;;12.40;99.90;;;;;;5037667;28;20630;-90
2023/09/04 02:16:43;;;;;;;4.63;2.60;;;12.40;99.90;;;;;;5037038;28;20174;-90
2023/09/04 02:19:09;;;;;;;2.95;2.38;;;12.40;99.90;;;;;;5037392;28;20193;-89
2023/09/04 02:21:35;;;;;;;6.63;2.50;;;12.40;99.90;;;;;;5037138;28;20182;-90
2023/09/04 02:24:01;;;;;;;4.28;2.22;;;12.40;99.90;;;;;;5037581;28;20196;-90
2023/09/04 02:26:30;;;;;;;2.90;2.20;;;12.40;99.90;;;;;;5037686;28;20696;-91
2023/09/04 02:28:57;;;;;;;4.75;2.42;;;12.40;99.90;;;;;;5036575;28;20177;-90
2023/09/04 02:31:22;;;;;;;3.55;2.30;;;12.30;99.90;;;;;;5037193;28;20178;-91
2023/09/04 02:33:48;;;;;;;3.80;2.20;;;12.30;99.90;;;;;;5054865;28;20174;-91
2023/09/04 02:36:14;;;;;;;2.85;2.13;;;12.30;99.90;;;;;;5025659;28;20653;-91
2023/09/04 02:38:41;;;;;;;3.85;2.33;;;12.30;99.90;;;;;;5035049;28;20769;-91
2023/09/04 02:41:07;;;;;;;5.30;2.38;;;12.30;99.90;;;;;;5017121;28;20216;-90
2023/09/04 02:43:32;;;;;;;5.68;2.17;;;12.20;99.90;;;;;;5017170;28;20202;-90
2023/09/04 02:45:58;;;;;;;3.67;2.30;;;12.20;99.90;;;;;;5017428;28;20179;-91
2023/09/04 02:48:27;;;;;;;2.17;1.85;;;12.20;99.90;;;;;;5017055;28;20214;-90
2023/09/04 02:51:01;;;;;;;3.35;2.00;;;12.20;99.90;;;;;;5034526;28;20163;-90
2023/09/04 02:53:28;;;;;;;4.10;2.03;;;12.20;99.90;;;;;;5017411;28;20185;-91
2023/09/04 02:55:54;;;;;;;7.63;2.33;;;12.20;99.90;;;;;;5017367;28;20178;-91
2023/09/04 02:58:22;;;;;;;7.32;2.13;;;12.10;99.90;;;;;;5017264;28;20272;-91
2023/09/04 03:00:47;;;;;;;6.28;2.17;;;12.10;99.90;;;;;;5017315;28;20497;-92
2023/09/04 03:03:13;;;;;;;3.65;2.00;;;12.00;99.90;;;;;;5017244;28;20182;-92
2023/09/04 03:05:39;;;;;;;2.83;2.20;;;12.00;99.90;;;;;;5016945;28;20552;-91
2023/09/04 03:08:06;;;;;;;2.60;1.70;;;12.00;99.90;;;;;;5016894;28;21078;-90
2023/09/04 03:10:32;;;;;;;2.35;2.13;;;12.00;99.90;;;;;;5017676;28;20511;-90
2023/09/04 03:12:57;;;;;;;4.32;2.15;;;12.00;99.90;;;;;;5017270;28;20182;-91
2023/09/04 03:15:23;;;;;;;5.85;2.08;;;12.00;99.90;;;;;;5016780;28;20627;-91
2023/09/04 03:17:49;;;;;;;4.13;2.13;;;12.00;99.90;;;;;;5017067;28;20617;-91
2023/09/04 03:20:19;;;;;;;4.78;2.45;;;12.00;99.90;;;;;;5016679;28;20178;-90
2023/09/04 03:22:45;;;;;;;3.38;2.17;;;11.90;99.90;;;;;;5016928;28;20558;-91
2023/09/04 03:25:11;;;;;;;5.32;2.10;;;11.90;99.90;;;;;;5017065;28;20639;-92
2023/09/04 03:27:39;;;;;;;4.50;2.05;;;12.00;99.90;;;;;;5016932;28;20279;-91
2023/09/04 03:30:05;;;;;;;2.72;2.10;;;11.90;99.90;;;;;;5034677;28;20174;-92
2023/09/04 03:32:31;;;;;;;3.58;2.22;;;11.80;99.90;;;;;;5016911;28;20206;-91
2023/09/04 03:34:57;;;;;;;4.43;2.17;;;11.80;99.90;;;;;;5016192;28;20218;-92
2023/09/04 03:37:25;;;;;;;3.80;2.33;;;11.70;99.90;;;;;;5016681;28;20621;-92
2023/09/04 03:39:51;;;;;;;2.60;2.30;;;11.70;99.90;;;;;;5018776;28;20194;-91
2023/09/04 03:42:17;;;;;;;5.38;2.53;;;11.70;99.90;;;;;;5020060;28;20641;-91
2023/09/04 03:44:42;;;;;;;4.60;2.45;;;11.70;99.90;;;;;;5020607;28;20238;-91
2023/09/04 03:47:10;;;;;;;3.65;2.13;;;11.70;99.90;;;;;;5020025;28;20218;-91
2023/09/04 03:49:36;;;;;;;3.00;2.28;;;11.70;99.90;;;;;;5020060;28;20262;-92
2023/09/04 03:52:02;;;;;;;3.40;2.30;;;11.80;99.90;;;;;;5020047;28;20264;-91
2023/09/04 03:54:31;;;;;;;3.65;2.92;;;11.80;99.90;;;;;;5020496;28;20609;-91
2023/09/04 03:57:00;;;;;;;2.80;2.50;;;11.80;99.90;;;;;;5020077;28;20178;-90
2023/09/04 03:59:26;;;;;;;4.90;2.60;;;11.80;99.90;;;;;;5020322;28;20198;-92
2023/09/04 04:01:53;;;;;;;5.18;2.80;;;11.80;99.90;;;;;;5020307;28;20181;-92
2023/09/04 04:04:19;;;;;;;4.38;2.63;;;11.70;99.90;;;;;;5020234;28;20214;-92
2023/09/04 04:06:44;;;;;;;3.45;2.42;;;11.70;99.90;;;;;;5019794;28;20679;-91
2023/09/04 04:09:11;;;;;;;6.82;2.78;;;11.70;99.90;;;;;;5020235;28;20185;-91
2023/09/04 04:11:37;;;;;;;5.35;2.92;;;11.70;99.90;;;;;;5037686;28;20281;-91
2023/09/04 04:14:03;;;;;;;5.63;2.85;;;11.70;99.90;;;;;;5019936;28;20210;-90
2023/09/04 04:16:32;;;;;;;3.35;2.75;;;11.70;99.90;;;;;;5037414;28;20261;-90
2023/09/04 04:18:59;;;;;;;6.90;3.17;;;11.70;99.90;;;;;;5019746;28;20266;-91
2023/09/04 04:21:25;;;;;;;3.63;3.15;;;11.70;99.90;;;;;;5019546;28;20903;-91
2023/09/04 04:23:51;;;;;;;3.65;3.17;;;11.60;99.90;;;;;;5019753;28;20209;-91
2023/09/04 04:26:17;;;;;;;4.28;2.92;;;11.60;99.90;;;;;;5019693;28;20312;-91
2023/09/04 04:28:57;;;;;;;4.38;2.67;;;11.60;99.90;;;;;;5019361;28;20305;-90
2023/09/04 04:31:23;;;;;;;4.95;2.83;;;11.60;99.90;;;;;;5019778;28;20177;-91
2023/09/04 04:33:48;;;;;;;4.72;3.10;;;11.60;99.90;;;;;;5019623;28;20178;-91
2023/09/04 04:36:14;;;;;;;3.13;2.83;;;11.60;99.90;;;;;;5019136;28;20232;-90
2023/09/04 04:38:42;;;;;;;6.85;3.28;;;11.60;99.90;;;;;;5036011;28;20251;-91
2023/09/04 04:41:08;;;;;;;3.33;2.97;;;11.50;99.90;;;;;;5035949;28;20179;-91
2023/09/04 04:43:33;;;;;;;7.65;3.00;;;11.60;99.90;;;;;;5036069;28;20500;-92
2023/09/04 04:45:59;;;;;;;3.63;3.25;;;11.50;99.90;;;;;;5019291;28;20195;-92
2023/09/04 04:48:25;;;;;;;6.68;3.10;;;11.50;99.90;;;;;;5019270;28;20218;-92
2023/09/04 04:50:51;;;;;;;6.25;3.50;;;11.60;99.90;;;;;;5018704;28;20182;-93
2023/09/04 04:53:16;;;;;;;3.60;3.13;;;11.60;99.90;;;;;;5018888;28;20277;-92
2023/09/04 04:55:42;;;;;;;5.03;3.50;;;11.50;99.90;;;;;;5019165;28;20178;-92
2023/09/04 04:58:08;;;;;;;3.85;2.83;;;11.60;99.90;;;;;;5019248;28;20175;-93
2023/09/04 05:00:34;;;;;;;5.22;2.95;;;11.50;99.90;;;;;;5017943;28;20598;-92
2023/09/04 05:02:59;;;;;;;4.03;3.10;;;11.60;99.90;;;;;;5036058;28;20258;-92
2023/09/04 05:05:25;;;;;;;3.80;3.30;;;11.60;99.90;;;;;;5019012;28;20625;-90
2023/09/04 05:07:52;;;;;;;3.88;2.90;;;11.60;99.90;;;;;;5018781;28;20301;-92
2023/09/04 05:10:18;;;;;;;3.42;2.90;;;11.60;99.90;;;;;;5018759;28;20178;-93
2023/09/04 05:12:43;;;;;;;4.60;3.10;;;11.60;99.90;;;;;;5018814;28;20183;-92
2023/09/04 05:15:10;;;;;;;2.88;2.67;;;11.60;99.90;;;;;;5018841;28;20213;-92
2023/09/04 05:17:36;;;;;;;5.03;3.03;;;11.60;99.90;;;;;;5018767;28;20182;-93
2023/09/04 05:20:03;;;;;;;6.07;3.47;;;11.70;99.90;;;;;;5018725;28;20167;-91
2023/09/04 05:22:31;;;;;;;3.53;3.20;;;11.80;99.90;;;;;;5018811;28;20182;-92
2023/09/04 05:24:57;;;;;;;3.80;3.22;;;11.90;99.90;;;;;;5018598;28;20183;-92
2023/09/04 05:27:22;;;;;;;5.20;3.33;;;11.90;99.90;;;;;;5018710;28;20212;-92
2023/09/04 05:29:48;;;;;;;5.57;3.50;;;12.00;99.90;;;;;;5014683;28;20195;-92
2023/09/04 05:32:14;;;;;;;5.18;3.13;;;12.10;99.90;;;;;;4999472;28;20175;-93
2023/09/04 05:34:40;;;;;;;6.22;3.08;;;12.20;99.90;;;;;;4998832;28;20214;-94
2023/09/04 05:37:11;;;;;;;4.80;3.40;;;12.30;99.90;;;;;;4998748;28;20183;-92
2023/09/04 05:39:38;;;;;;;3.53;3.10;;;12.40;99.90;;;;;;5013515;28;20181;-91
2023/09/04 05:42:05;;;;;;;6.30;3.42;;;12.50;99.90;;;;;;5018460;28;20220;-92
2023/09/04 05:44:30;;;;;;;6.82;3.70;;;12.50;99.90;;;;;;5018402;28;20746;-92
2023/09/04 05:46:56;;;;;;;5.25;2.92;;;12.60;99.90;;;;;;5018160;28;20221;-93
2023/09/04 05:49:22;;;;;;;3.78;3.00;;;12.60;99.90;;;;;;5018299;28;20179;-93
2023/09/04 05:51:48;;;;;;;5.50;3.10;;;12.70;99.90;;;;;;5018453;28;20170;-93
2023/09/04 05:54:14;;;;;;;4.55;3.03;;;12.90;99.90;;;;;;5018028;28;20178;-92
2023/09/04 05:56:39;;;;;;;5.10;3.00;;;13.00;99.90;;;;;;5018478;28;20171;-93
2023/09/04 05:59:08;;;;;;;3.85;2.75;;;13.20;99.90;;;;;;5017915;28;20182;-93
2023/09/04 06:01:34;;;;;;;3.35;2.85;;;13.40;99.90;;;;;;5035552;28;20572;-92
2023/09/04 06:04:00;;;;;;;4.10;2.55;;;13.50;99.90;;;;;;5034798;28;20175;-92
2023/09/04 06:06:25;;;;;;;5.10;2.88;;;13.60;99.90;;;;;;5017832;28;20274;-91
2023/09/04 06:08:59;;;;;;;4.05;2.90;;;13.70;99.90;;;;;;5017651;28;20222;-92
2023/09/04 06:11:25;;;;;;;3.22;2.58;;;13.90;99.90;;;;;;5018170;28;20887;-92
2023/09/04 06:13:51;;;;;;;6.18;2.80;;;14.00;99.90;;;;;;5017968;28;20516;-92
2023/09/04 06:16:21;;;;;;;3.95;2.88;;;14.20;99.90;;;;;;5017910;28;20269;-92
2023/09/04 06:18:48;;;;;;;3.25;2.95;;;14.30;99.90;;;;;;5017979;28;20262;-92
2023/09/04 06:21:13;;;;;;;4.55;2.60;;;14.40;99.90;;;;;;5017808;28;20178;-92
2023/09/04 06:23:39;;;;;;;3.38;3.08;;;14.50;99.90;;;;;;5017470;28;20197;-93
2023/09/04 06:26:05;;;;;;;3.28;2.85;;;14.60;99.90;;;;;;5017858;28;20192;-92
2023/09/04 06:28:34;;;;;;;4.53;2.60;;;14.70;99.90;;;;;;5017365;28;20233;-91
2023/09/04 06:30:59;;;;;;;3.58;3.20;;;14.80;99.90;;;;;;5017931;28;20198;-93
2023/09/04 06:33:25;;;;;;;3.90;2.80;;;14.90;99.90;;;;;;5017867;28;20205;-91
2023/09/04 06:35:51;;;;;;;3.15;2.85;;;15.00;99.90;;;;;;5017401;28;20749;-92
2023/09/04 06:38:24;;;;;;;4.53;3.35;;;15.10;99.90;;;;;;5022171;28;20269;-92
2023/09/04 06:40:57;;;;;;;4.00;2.90;;;15.20;99.90;;;;;;5055182;28;20256;-92
2023/09/04 06:43:24;;;;;;;3.47;3.08;;;15.30;99.90;;;;;;5037429;28;20166;-92
2023/09/04 06:45:49;;;;;;;3.63;2.50;;;15.40;99.90;;;;;;5037490;28;20181;-92
2023/09/04 06:48:21;;;;;;;5.00;2.85;;;15.50;99.90;;;;;;5054907;28;20205;-91
2023/09/04 06:50:49;;;;;;;3.47;2.38;;;15.70;99.90;;;;;;5037353;28;20623;-91
2023/09/04 06:53:16;;;;;;;4.20;3.00;;;15.80;99.90;;;;;;5054880;28;20177;-92
2023/09/04 06:55:42;;;;;;;3.35;2.65;;;15.80;99.90;;;;;;5037023;28;20268;-92
2023/09/04 06:58:08;;;;;;;4.93;2.90;;;15.90;99.90;;;;;;5037212;28;20632;-92
2023/09/04 07:00:35;;;;;;;3.15;2.83;;;16.00;99.90;;;;;;5054811;28;20173;-92
2023/09/04 07:03:01;;;;;;;3.45;2.20;;;16.10;99.90;;;;;;5036974;28;20268;-93
2023/09/04 07:05:27;;;;;;;5.63;3.03;;;16.10;99.90;;;;;;5055037;28;20252;-91
2023/09/04 07:07:52;;;;;;;4.57;3.00;;;16.20;99.90;;;;;;5035344;28;20263;-91
2023/09/04 07:10:19;;;;;;;5.35;2.40;;;16.30;99.90;;;;;;5033272;28;20174;-91
2023/09/04 07:12:45;;;;;;;4.55;2.95;;;16.40;99.90;;;;;;5017407;28;20188;-91
2023/09/04 07:15:11;;;;;;;2.72;2.53;;;16.50;99.90;;;;;;5035986;28;20335;-92
2023/09/04 07:17:37;;;;;;;5.47;2.92;;;16.60;99.90;;;;;;5004081;28;20186;-91
2023/09/04 07:20:04;;;;;;;5.35;2.67;;;16.70;99.90;;;;;;5018892;28;20175;-91
2023/09/04 07:22:30;;;;;;;6.43;2.72;;;16.80;99.90;;;;;;5019035;28;20163;-93
2023/09/04 07:24:56;;;;;;;3.30;3.00;;;16.90;99.90;;;;;;5001182;28;20175;-90
2023/09/04 07:27:21;;;;;;;3.95;2.60;;;16.90;99.90;;;;;;5001458;28;20546;-90
2023/09/04 07:29:49;;;;;;;6.07;3.15;;;17.00;99.90;;;;;;5001380;28;20175;-91
2023/09/04 07:32:15;;;;;;;3.42;2.55;;;17.10;99.90;;;;;;5017459;28;20175;-91
2023/09/04 07:34:41;;;;;;;3.45;2.58;;;17.30;99.90;;;;;;5001053;28;20187;-90
2023/09/04 07:37:06;;;;;;;5.13;2.55;;;17.40;99.90;;;;;;5001160;28;20183;-91
2023/09/04 07:39:32;;;;;;;5.70;2.50;;;17.50;99.90;;;;;;5015669;28;20529;-90
2023/09/04 07:41:58;;;;;;;3.35;2.17;;;17.60;99.90;;;;;;5020824;28;20182;-92
2023/09/04 07:44:24;;;;;;;2.90;2.50;;;17.70;99.90;;;;;;5021113;28;20182;-90
2023/09/04 07:46:50;;;;;;;5.95;2.28;;;17.90;99.90;;;;;;5020125;28;20174;-91
2023/09/04 07:49:18;;;;;;;4.22;2.47;;;18.00;99.90;;;;;;5020738;28;20261;-91
2023/09/04 07:51:43;;;;;;;5.13;2.30;;;18.10;99.90;;;;;;5020713;28;20617;-92
2023/09/04 07:54:11;;;;;;;4.28;1.95;;;18.30;99.90;;;;;;5020791;28;20186;-93
2023/09/04 07:56:37;;;;;;;4.40;2.45;;;18.30;99.90;;;;;;5020765;28;20258;-91
2023/09/04 07:59:05;;;;;;;4.25;2.45;;;18.40;99.90;;;;;;5020363;28;20175;-90
2023/09/04 08:01:32;;;;;;;4.57;2.75;;;18.50;99.90;;;;;;5020248;28;20235;-91
2023/09/04 08:03:58;;;;;;;6.20;2.30;;;18.60;99.90;;;;;;5020851;28;20178;-91
2023/09/04 08:06:27;;;;;;;5.60;2.10;;;18.70;99.90;;;;;;5020818;28;20551;-96
2023/09/04 08:08:54;;;;;;;4.20;2.20;;;18.80;99.90;;;;;;5020562;28;20214;-92
2023/09/04 08:11:20;;;;;;;3.42;2.00;;;18.80;99.90;;;;;;5020624;28;20228;-96
2023/09/04 08:13:46;;;;;;;2.58;1.70;;;18.90;99.90;;;;;;5020441;28;20179;-93
2023/09/04 08:16:11;;;;;;;4.25;1.92;;;19.00;99.90;;;;;;5019719;28;20242;-95
2023/09/04 08:18:37;;;;;;;2.80;2.10;;;19.00;99.90;;;;;;5019822;28;20617;-92
2023/09/04 08:21:05;;;;;;;5.88;2.05;;;19.10;99.90;;;;;;5020866;28;20186;-94
2023/09/04 08:23:30;;;;;;;3.17;1.75;;;19.20;99.90;;;;;;5020094;28;20186;-93
2023/09/04 08:26:01;;;;;;;2.75;1.70;;;19.20;99.90;;;;;;5036859;28;20170;-92
2023/09/04 08:28:27;;;;;;;3.53;1.80;;;19.30;99.90;;;;;;5020098;28;20237;-94
2023/09/04 08:30:54;;;;;;;2.85;1.98;;;19.40;99.90;;;;;;5025890;28;20216;-90
2023/09/04 08:33:20;;;;;;;2.08;1.70;;;19.50;99.90;;;;;;5000364;28;20180;-92
2023/09/04 08:35:46;;;;;;;2.30;1.40;;;19.60;99.90;;;;;;5017595;28;20720;-90
2023/09/04 08:38:11;;;;;;;1.95;1.40;;;19.70;99.90;;;;;;5017520;28;20190;-90
2023/09/04 08:40:40;;;;;;;3.17;1.63;;;19.80;99.90;;;;;;5010773;28;20181;-90
2023/09/04 08:43:08;;;;;;;5.00;1.67;;;19.80;99.90;;;;;;5036898;28;20171;-93
2023/09/04 08:45:41;;;;;;;2.13;1.58;;;19.90;99.90;;;;;;5019003;28;20209;-91
2023/09/04 08:48:08;;;;;;;2.03;1.33;;;19.90;99.90;;;;;;5036266;28;20206;-90
2023/09/04 08:50:36;;;;;;;3.03;1.45;;;20.00;99.90;;;;;;5018988;28;20200;-89
2023/09/04 08:53:06;;;;;;;5.88;2.05;;;20.00;99.90;;;;;;5019425;28;20186;-89
2023/09/04 08:55:35;;;;;;;2.65;1.70;;;20.10;99.90;;;;;;5018723;28;20679;-90
2023/09/04 08:58:02;;;;;;;3.08;1.58;;;20.20;99.90;;;;;;5036758;28;20198;-91
2023/09/04 09:00:29;;;;;;;3.10;1.70;;;20.20;99.90;;;;;;5018492;28;20277;-89
2023/09/04 09:02:57;;;;;;;4.25;1.50;;;20.20;99.90;;;;;;5018839;28;20609;-90
2023/09/04 09:05:24;;;;;;;2.88;1.58;;;20.30;99.90;;;;;;5018992;28;20190;-90
2023/09/04 09:07:51;;;;;;;3.42;1.40;;;20.40;99.90;;;;;;5018962;28;20704;-89
2023/09/04 09:10:19;;;;;;;2.83;1.42;;;20.50;99.90;;;;;;5018831;28;20178;-93
2023/09/04 09:12:45;;;;;;;3.05;1.38;;;20.50;99.90;;;;;;5019040;28;20178;-90
2023/09/04 09:15:11;;;;;;;3.05;1.35;;;20.50;99.90;;;;;;5018857;28;20179;-89
2023/09/04 09:17:57;;;;;;;2.08;1.38;;;20.50;99.90;;;;;;5018991;28;20179;-90
2023/09/04 09:20:39;;;;;;;2.17;1.48;;;20.60;99.90;;;;;;5018853;28;20531;-90
2023/09/04 09:23:05;;;;;;;3.58;1.65;;;20.70;99.90;;;;;;5036407;28;20155;-92
2023/09/04 09:25:33;;;;;;;1.75;1.40;;;20.80;99.90;;;;;;5036308;28;20214;-90
2023/09/04 09:28:06;;;;;;;3.00;1.60;;;20.80;99.90;;;;;;5018716;28;20206;-95
2023/09/04 09:30:34;;;;;;;2.65;1.77;;;20.80;99.90;;;;;;5009952;28;20560;-89
2023/09/04 09:33:05;;;;;;;3.03;1.42;;;20.90;99.90;;;;;;5016105;28;20233;-90
2023/09/04 09:35:32;;;;;;;4.85;1.35;;;20.90;99.90;;;;;;4998535;28;20686;-94
2023/09/04 09:37:59;;;;;;;2.47;1.77;;;20.90;99.90;;;;;;5016309;28;20175;-90
2023/09/04 09:40:30;;;;;;;3.60;1.75;;;21.00;99.90;;;;;;4998895;28;20222;-92
2023/09/04 09:42:59;;;;;;;1.92;1.48;;;21.10;99.90;;;;;;4999200;28;20179;-91
2023/09/04 09:45:33;;;;;;;3.75;1.40;;;21.20;99.90;;;;;;4998416;28;20179;-90
2023/09/04 09:48:05;;;;;;;3.75;1.50;;;21.20;99.90;;;;;;4998264;28;20218;-90
2023/09/04 09:50:31;;;;;;;2.50;1.30;;;21.30;99.90;;;;;;4998717;28;20182;-90
2023/09/04 09:53:02;;;;;;;1.90;1.60;;;21.30;99.90;;;;;;4998895;28;20620;-92
2023/09/04 09:55:31;;;;;;;1.73;1.10;;;21.40;99.90;;;;;;5010222;28;20175;-96
2023/09/04 09:57:58;;;;;;;1.65;1.30;;;21.40;99.90;;;;;;5018043;28;20170;-90
2023/09/04 10:00:31;;;;;;;2.25;1.48;;;21.50;99.90;;;;;;5034900;28;20174;-94
2023/09/04 10:02:57;;;;;;;4.90;1.30;;;21.60;99.90;;;;;;5017647;28;20233;-94
2023/09/04 10:05:24;;;;;;;2.55;1.50;;;21.60;99.90;;;;;;5018217;28;20231;-90
2023/09/04 10:08:00;;;;;;;3.13;1.30;;;21.60;99.90;;;;;;5017345;28;20210;-91
2023/09/04 10:10:32;;;;;;;3.63;1.52;;;21.60;99.90;;;;;;5017835;28;20187;-91
2023/09/04 10:13:08;;;;;;;3.38;1.42;;;21.60;99.90;;;;;;5017543;28;20316;-92
2023/09/04 10:15:36;;;;;;;3.42;1.58;;;21.60;99.90;;;;;;5017418;28;20494;-89
2023/09/04 10:18:06;;;;;;;4.70;1.30;;;21.70;99.90;;;;;;5017684;28;20189;-90
2023/09/04 10:20:35;;;;;;;2.47;1.50;;;21.70;99.90;;;;;;5017274;28;20183;-91
2023/09/04 10:23:09;;;;;;;5.63;1.65;;;21.80;99.90;;;;;;5017463;28;20228;-90
2023/09/04 10:25:56;;;;;;;3.75;1.45;;;21.80;99.90;;;;;;5017745;28;20174;-95
2023/09/04 10:28:30;;;;;;;2.22;1.58;;;21.90;99.90;;;;;;5017546;28;20662;-89
2023/09/04 10:30:59;;;;;;;1.88;1.40;;;21.90;99.90;;;;;;5005280;28;20202;-89
2023/09/04 10:33:26;;;;;;;3.15;1.30;;;21.90;99.90;;;;;;4997697;28;20190;-93
2023/09/04 10:35:55;;;;;;;3.17;1.60;;;21.90;99.90;;;;;;4997494;28;20237;-88
2023/09/04 10:38:25;;;;;;;2.33;1.58;;;22.10;99.90;;;;;;4997479;28;20525;-89
2023/09/04 10:40:59;;;;;;;1.85;1.35;;;22.10;99.90;;;;;;4997399;28;20187;-90
2023/09/04 10:43:38;;;;;;;4.32;1.70;;;22.20;99.90;;;;;;4997559;28;20199;-88
2023/09/04 10:46:09;;;;;;;2.15;1.58;;;22.20;99.90;;;;;;4997359;28;20182;-88
2023/09/04 10:48:49;;;;;;;2.67;1.60;;;22.30;99.90;;;;;;4996879;28;20301;-92
2023/09/04 10:51:35;;;;;;;3.45;1.58;;;22.30;99.90;;;;;;4997038;28;20178;-90
2023/09/04 10:54:02;;;;;;;3.45;1.70;;;22.40;99.90;;;;;;4997487;28;20190;-90
2023/09/04 10:56:28;;;;;;;6.85;1.80;;;22.50;99.90;;;;;;4997601;28;20505;-91
2023/09/04 10:58:59;;;;;;;3.05;1.90;;;22.60;99.90;;;;;;4997551;28;20252;-91
2023/09/04 11:01:38;;;;;;;2.95;2.20;;;22.70;99.90;;;;;;4998680;28;20193;-88
2023/09/04 11:04:08;;;;;;;3.55;2.30;;;22.70;99.90;;;;;;4997486;28;20197;-91
2023/09/04 11:06:41;;;;;;;4.55;2.22;;;22.70;99.90;;;;;;4997559;28;20179;-90
2023/09/04 11:09:13;;;;;;;3.83;2.65;;;22.70;99.90;;;;;;4997292;28;20225;-91
2023/09/04 11:11:42;;;;;;;5.13;2.40;;;22.70;99.90;;;;;;4997372;28;20578;-90
2023/09/04 11:14:11;;;;;;;2.53;1.80;;;22.70;99.90;;;;;;4997243;28;20187;-90
2023/09/04 11:16:42;;;;;;;2.65;2.00;;;22.80;99.90;;;;;;4997017;28;20176;-90
2023/09/04 11:19:14;;;;;;;2.92;1.90;;;22.90;99.90;;;;;;4997106;28;20187;-90
2023/09/04 11:21:45;;;;;;;1.73;1.30;;;23.00;99.90;;;;;;4997018;28;20187;-91
2023/09/04 11:24:11;;;;;;;3.65;1.83;;;23.10;99.90;;;;;;4997381;28;20183;-94
2023/09/04 11:26:38;;;;;;;2.63;1.67;;;23.10;99.90;;;;;;4997680;28;20179;-89
2023/09/04 11:29:05;;;;;;;4.05;1.95;;;23.20;99.90;;;;;;5014877;28;20199;-90
2023/09/04 11:31:34;;;;;;;4.47;1.77;;;23.30;99.90;;;;;;5011990;28;20601;-92
2023/09/04 11:34:01;;;;;;;3.53;1.80;;;23.30;99.90;;;;;;5016755;28;20194;-91
2023/09/04 11:36:26;;;;;;;1.85;1.60;;;23.50;99.90;;;;;;5016996;28;20237;-92
2023/09/04 11:39:08;;;;;;;3.30;1.23;;;23.50;99.90;;;;;;5016748;28;20171;-90
2023/09/04 11:41:34;;;;;;;4.63;1.58;;;23.50;99.90;;;;;;5016952;28;20175;-91
2023/09/04 11:44:01;;;;;;;2.47;1.30;;;23.60;99.90;;;;;;5016715;28;20185;-89
2023/09/04 11:46:27;;;;;;;2.95;1.40;;;23.70;99.90;;;;;;5016747;28;20182;-90
2023/09/04 11:48:53;;;;;;;4.63;1.58;;;23.80;99.90;;;;;;5016534;28;20217;-88
2023/09/04 11:51:19;;;;;;;3.42;1.33;;;23.70;99.90;;;;;;5016552;28;20171;-90
2023/09/04 11:53:46;;;;;;;4.40;1.40;;;23.80;99.90;;;;;;5016517;28;20178;-93
2023/09/04 11:56:11;;;;;;;4.25;1.30;;;23.80;99.90;;;;;;5016536;28;20182;-92
2023/09/04 11:58:38;;;;;;;2.00;1.20;;;23.90;99.90;;;;;;5016445;28;20623;-91
2023/09/04 12:01:03;;;;;;;2.80;1.35;;;23.90;99.90;;;;;;5017762;28;20189;-89
2023/09/04 12:03:29;;;;;;;2.85;1.40;;;24.00;99.90;;;;;;5020551;28;20178;-94
2023/09/04 12:05:55;;;;;;;1.60;1.10;;;24.10;99.90;;;;;;5020182;28;20298;-89
2023/09/04 12:08:21;;;;;;;2.22;1.42;;;24.20;99.90;;;;;;5019902;28;20222;-90
2023/09/04 12:10:49;;;;;;;1.98;1.13;;;24.20;99.90;;;;;;5020065;28;20629;-96
2023/09/04 12:13:23;;;;;;;1.88;1.35;;;24.20;99.90;;;;;;5019491;28;20179;-90
2023/09/04 12:15:48;;;;;;;3.88;1.83;;;24.20;99.90;;;;;;5019624;28;20508;-93
2023/09/04 12:18:15;;;;;;;2.35;1.33;;;24.30;99.90;;;;;;5019952;28;20174;-92
2023/09/04 12:20:43;;;;;;;2.50;1.30;;;24.30;99.90;;;;;;5037203;28;20262;-88
2023/09/04 12:23:09;;;;;;;3.78;1.30;;;24.30;99.90;;;;;;5019772;28;20178;-93
2023/09/04 12:25:44;;;;;;;4.97;1.38;;;24.30;99.90;;;;;;5018615;28;20175;-92
2023/09/04 12:28:12;;;;;;;3.03;1.40;;;24.40;99.90;;;;;;5019767;28;20217;-90
2023/09/04 12:30:40;;;;;;;2.40;1.42;;;24.40;99.90;;;;;;5020688;28;20186;-91
2023/09/04 12:33:18;;;;;;;2.97;1.30;;;24.30;99.30;;;;;;5019463;28;20314;-89
2023/09/04 12:35:53;;;;;;;2.63;1.40;;;24.40;99.90;;;;;;5020134;28;20602;-92
2023/09/04 12:38:19;;;;;;;2.80;1.40;;;24.40;99.80;;;;;;5019838;28;20174;-91
2023/09/04 12:40:46;;;;;;;4.63;1.35;;;24.40;99.90;;;;;;5019749;28;20174;-93
2023/09/04 12:43:13;;;;;;;2.97;1.27;;;24.50;99.90;;;;;;5019798;28;20187;-90
2023/09/04 12:45:39;;;;;;;1.23;1.10;;;24.60;99.90;;;;;;5019520;28;20254;-91
2023/09/04 12:48:14;;;;;;;1.52;1.20;;;24.60;98.80;;;;;;5018583;28;20732;-90
2023/09/04 12:50:40;;;;;;;2.75;1.40;;;24.60;99.10;;;;;;5017142;28;20163;-89